createdAt,value
2018-07-24T00:01:04.837Z,20.72
2018-07-24T00:03:34.134Z,20.91
2018-07-24T00:06:03.445Z,20.85
2018-07-24T00:08:32.730Z,20.90
2018-07-24T00:11:02.070Z,21.03
2018-07-24T00:13:31.354Z,21.24
2018-07-24T00:16:00.712Z,20.81
2018-07-24T00:18:30.197Z,20.87
2018-07-24T00:20:59.469Z,20.64
2018-07-24T00:23:28.747Z,20.87
2018-07-24T00:25:58.054Z,21.06
2018-07-24T00:28:27.418Z,21.14
2018-07-24T00:30:56.822Z,21.00
2018-07-24T00:33:26.178Z,20.89
2018-07-24T00:35:55.446Z,20.67
2018-07-24T00:38:25.298Z,20.56
2018-07-24T00:40:54.721Z,20.71
2018-07-24T00:43:24.107Z,20.85
2018-07-24T00:45:53.374Z,21.14
2018-07-24T00:48:22.673Z,20.68
2018-07-24T00:50:52.015Z,20.78
2018-07-24T00:53:21.324Z,20.58
2018-07-24T00:55:50.746Z,20.26
2018-07-24T00:58:20.229Z,20.49
2018-07-24T01:00:49.561Z,21.07
2018-07-24T01:03:18.869Z,20.62
2018-07-24T01:05:48.203Z,20.86
2018-07-24T01:08:17.533Z,20.72
2018-07-24T01:10:46.824Z,20.48
2018-07-24T01:13:16.181Z,20.59
2018-07-24T01:15:45.577Z,20.34
2018-07-24T01:18:14.909Z,20.31
2018-07-24T01:20:44.209Z,20.30
2018-07-24T01:23:13.658Z,20.27
2018-07-24T01:25:42.969Z,20.43
2018-07-24T01:28:12.237Z,20.33
2018-07-24T01:30:41.577Z,20.44
2018-07-24T01:33:10.913Z,20.19
2018-07-24T01:35:40.213Z,20.39
2018-07-24T01:38:09.621Z,20.37
2018-07-24T01:40:38.953Z,20.31
2018-07-24T01:43:08.301Z,20.18
2018-07-24T01:45:37.782Z,20.45
2018-07-24T01:48:07.173Z,20.38
2018-07-24T01:50:36.441Z,20.34
2018-07-24T01:53:05.813Z,20.45
2018-07-24T01:55:35.129Z,20.45
2018-07-24T01:58:07.538Z,20.14
2018-07-24T02:00:36.905Z,19.90
2018-07-24T02:03:06.277Z,20.04
2018-07-24T02:05:35.576Z,20.29
2018-07-24T02:08:05.095Z,20.33
2018-07-24T02:10:34.469Z,20.29
2018-07-24T02:13:03.841Z,20.10
2018-07-24T02:15:33.152Z,20.07
2018-07-24T02:18:02.486Z,20.02
2018-07-24T02:20:31.786Z,20.01
2018-07-24T02:23:01.114Z,20.23
2018-07-24T02:25:30.461Z,20.09
2018-07-24T02:27:59.740Z,19.89
2018-07-24T02:30:29.066Z,19.99
2018-07-24T02:32:58.341Z,20.04
2018-07-24T02:35:27.611Z,20.05
2018-07-24T02:37:56.923Z,20.23
2018-07-24T02:40:26.193Z,19.81
2018-07-24T02:42:55.454Z,20.04
2018-07-24T02:45:24.737Z,19.79
2018-07-24T02:47:54.029Z,20.13
2018-07-24T02:50:23.427Z,20.11
2018-07-24T02:52:52.694Z,20.02
2018-07-24T02:55:22.076Z,19.98
2018-07-24T02:57:51.457Z,19.77
2018-07-24T03:00:37.453Z,19.63
2018-07-24T03:03:06.785Z,19.55
2018-07-24T03:05:36.094Z,19.74
2018-07-24T03:08:05.423Z,19.71
2018-07-24T03:10:34.692Z,19.61
2018-07-24T03:13:04.027Z,19.97
2018-07-24T03:15:33.321Z,19.85
2018-07-24T03:18:02.630Z,19.56
2018-07-24T03:20:31.998Z,19.90
2018-07-24T03:23:01.311Z,19.79
2018-07-24T03:25:30.578Z,19.69
2018-07-24T03:27:59.889Z,19.54
2018-07-24T03:30:29.246Z,19.76
2018-07-24T03:32:58.550Z,19.89
2018-07-24T03:35:27.814Z,19.86
2018-07-24T03:37:57.209Z,19.67
2018-07-24T03:40:26.557Z,19.68
2018-07-24T03:42:55.872Z,19.72
2018-07-24T03:45:25.204Z,19.77
2018-07-24T03:47:54.625Z,20.00
2018-07-24T03:50:23.984Z,19.99
2018-07-24T03:52:53.390Z,19.54
2018-07-24T03:55:22.769Z,19.75
2018-07-24T03:57:52.155Z,20.03
2018-07-24T04:00:21.507Z,19.87
2018-07-24T04:02:50.893Z,19.99
2018-07-24T04:05:20.302Z,20.00
2018-07-24T04:07:51.229Z,20.13
2018-07-24T04:10:21.737Z,20.00
2018-07-24T04:12:51.410Z,20.02
2018-07-24T04:15:20.803Z,20.36
2018-07-24T04:17:50.104Z,20.35
2018-07-24T04:20:19.385Z,20.34
2018-07-24T04:22:48.709Z,20.12
2018-07-24T04:25:18.132Z,20.11
2018-07-24T04:27:47.478Z,20.10
2018-07-24T04:30:16.805Z,20.27
2018-07-24T04:32:46.208Z,20.28
2018-07-24T04:35:16.746Z,20.31
2018-07-24T04:37:46.044Z,20.34
2018-07-24T04:40:16.630Z,20.54
2018-07-24T04:42:45.990Z,20.83
2018-07-24T04:45:15.408Z,20.94
2018-07-24T04:47:44.802Z,21.25
2018-07-24T04:50:14.330Z,21.11
2018-07-24T04:52:43.703Z,21.09
2018-07-24T04:55:13.162Z,21.17
2018-07-24T04:57:42.592Z,21.19
2018-07-24T05:00:12.180Z,21.30
2018-07-24T05:02:41.524Z,21.28
2018-07-24T05:05:10.889Z,21.20
2018-07-24T05:07:41.075Z,21.25
2018-07-24T05:10:10.567Z,21.00
2018-07-24T05:12:39.905Z,21.46
2018-07-24T05:15:10.189Z,21.63
2018-07-24T05:17:39.852Z,22.04
2018-07-24T05:20:09.358Z,21.76
2018-07-24T05:22:39.531Z,21.97
2018-07-24T05:25:08.899Z,21.98
2018-07-24T05:27:38.269Z,22.61
2018-07-24T05:30:07.914Z,22.42
2018-07-24T05:32:37.232Z,22.63
2018-07-24T05:35:06.878Z,22.66
2018-07-24T05:37:36.182Z,22.49
2018-07-24T05:40:07.604Z,22.60
2018-07-24T05:42:36.908Z,23.63
2018-07-24T05:45:07.431Z,25.65
2018-07-24T05:47:36.721Z,27.14
2018-07-24T05:50:06.198Z,28.28
2018-07-24T05:52:35.557Z,30.14
2018-07-24T05:55:04.876Z,30.03
2018-07-24T05:57:34.251Z,30.37
2018-07-24T06:00:03.589Z,32.42
2018-07-24T06:02:32.899Z,32.54
2018-07-24T06:05:02.311Z,33.88
2018-07-24T06:07:31.690Z,34.37
2018-07-24T06:10:01.125Z,32.91
2018-07-24T06:12:30.468Z,34.60
2018-07-24T06:14:59.828Z,35.44
2018-07-24T06:17:29.184Z,36.64
2018-07-24T06:19:58.738Z,35.21
2018-07-24T06:22:28.043Z,35.70
2018-07-24T06:24:57.384Z,37.35
2018-07-24T06:27:26.738Z,37.90
2018-07-24T06:29:56.110Z,36.19
2018-07-24T06:32:25.487Z,36.56
2018-07-24T06:34:54.892Z,36.44
2018-07-24T06:37:24.155Z,38.06
2018-07-24T06:39:53.485Z,38.34
2018-07-24T06:42:22.788Z,38.47
2018-07-24T06:44:52.188Z,39.48
2018-07-24T06:47:21.465Z,38.85
2018-07-24T06:49:50.879Z,39.12
2018-07-24T06:52:20.286Z,40.26
2018-07-24T06:54:49.611Z,40.00
2018-07-24T06:57:18.897Z,39.58
2018-07-24T06:59:48.212Z,41.57
2018-07-24T07:02:17.607Z,39.17
2018-07-24T07:04:47.020Z,40.75
2018-07-24T07:07:17.466Z,39.61
2018-07-24T07:09:46.815Z,40.85
2018-07-24T07:12:16.095Z,39.83
2018-07-24T07:14:45.403Z,40.22
2018-07-24T07:17:14.677Z,39.38
2018-07-24T07:19:44.048Z,38.60
2018-07-24T07:22:13.360Z,40.63
2018-07-24T07:24:42.745Z,38.73
2018-07-24T07:27:12.042Z,39.64
2018-07-24T07:29:41.333Z,40.92
2018-07-24T07:32:17.068Z,40.33
2018-07-24T07:34:46.362Z,40.52
2018-07-24T07:37:15.695Z,40.65
2018-07-24T07:39:45.507Z,39.65
2018-07-24T07:42:14.946Z,39.17
2018-07-24T07:44:44.300Z,41.20
2018-07-24T07:47:13.609Z,41.91
2018-07-24T07:49:42.974Z,40.71
2018-07-24T07:52:12.320Z,41.99
2018-07-24T07:54:41.657Z,41.51
2018-07-24T07:57:11.010Z,41.98
2018-07-24T07:59:40.305Z,42.30
2018-07-24T08:02:09.685Z,42.54
2018-07-24T08:04:39.011Z,43.34
2018-07-24T08:07:08.336Z,42.52
2018-07-24T08:09:37.673Z,42.09
2018-07-24T08:12:07.121Z,42.46
2018-07-24T08:14:36.519Z,42.71
2018-07-24T08:17:06.096Z,43.61
2018-07-24T08:19:35.432Z,43.23
2018-07-24T08:22:04.793Z,41.65
2018-07-24T08:24:34.283Z,43.58
2018-07-24T08:27:03.629Z,42.69
2018-07-24T08:29:33.161Z,42.75
2018-07-24T08:32:02.545Z,43.15
2018-07-24T08:34:32.156Z,43.34
2018-07-24T08:37:01.462Z,42.10
2018-07-24T08:39:30.899Z,43.65
2018-07-24T08:42:00.212Z,43.11
2018-07-24T08:44:29.812Z,44.25
2018-07-24T08:46:59.357Z,45.25
2018-07-24T08:49:28.717Z,43.81
2018-07-24T08:51:58.097Z,41.91
2018-07-24T08:54:27.627Z,44.11
2018-07-24T08:56:57.803Z,43.64
2018-07-24T08:59:27.172Z,42.86
2018-07-24T09:01:56.467Z,41.20
2018-07-24T09:04:25.977Z,41.79
2018-07-24T09:06:55.286Z,42.51
2018-07-24T09:09:24.570Z,42.43
2018-07-24T09:11:53.896Z,44.01
2018-07-24T09:14:23.261Z,43.12
2018-07-24T09:16:52.686Z,40.85
2018-07-24T09:19:22.039Z,42.75
2018-07-24T09:21:51.475Z,43.81
2018-07-24T09:24:20.756Z,44.15
2018-07-24T09:26:50.174Z,43.12
2018-07-24T09:29:19.485Z,45.20
2018-07-24T09:31:48.835Z,45.47
2018-07-24T09:34:18.303Z,45.98
2018-07-24T09:36:47.878Z,44.32
2018-07-24T09:39:17.211Z,44.34
2018-07-24T09:41:46.618Z,44.45
2018-07-24T09:44:15.996Z,43.75
2018-07-24T09:46:45.474Z,44.87
2018-07-24T09:49:14.806Z,45.98
2018-07-24T09:51:44.202Z,46.16
2018-07-24T09:54:13.507Z,47.09
2018-07-24T09:56:42.887Z,45.83
2018-07-24T09:59:17.694Z,45.23
2018-07-24T10:01:47.121Z,44.52
2018-07-24T10:04:16.656Z,44.41
2018-07-24T10:06:46.058Z,43.98
2018-07-24T10:09:15.420Z,45.64
2018-07-24T10:11:44.753Z,45.33
2018-07-24T10:14:14.232Z,43.79
2018-07-24T10:16:43.637Z,44.25
2018-07-24T10:19:14.058Z,41.11
2018-07-24T10:21:43.466Z,41.92
2018-07-24T10:24:12.906Z,43.56
2018-07-24T10:26:42.330Z,42.91
2018-07-24T10:29:11.661Z,42.16
2018-07-24T10:31:41.059Z,43.43
2018-07-24T10:34:10.525Z,44.02
2018-07-24T10:36:39.882Z,43.24
2018-07-24T10:39:10.962Z,44.07
2018-07-24T10:41:40.273Z,44.23
2018-07-24T10:44:09.634Z,44.33
2018-07-24T10:46:39.580Z,44.18
2018-07-24T10:49:09.861Z,43.08
2018-07-24T10:51:39.422Z,42.81
2018-07-24T10:54:08.843Z,42.38
2018-07-24T10:56:38.244Z,44.05
2018-07-24T10:59:07.608Z,43.13
2018-07-24T11:01:36.949Z,44.78
2018-07-24T11:04:06.328Z,44.34
2018-07-24T11:06:35.754Z,42.84
2018-07-24T11:09:07.804Z,43.07
2018-07-24T11:11:37.160Z,41.62
2018-07-24T11:14:06.701Z,42.46
2018-07-24T11:16:36.219Z,42.33
2018-07-24T11:19:05.694Z,41.82
2018-07-24T11:21:35.148Z,41.88
2018-07-24T11:24:04.547Z,42.19
2018-07-24T11:26:34.001Z,43.73
2018-07-24T11:29:03.350Z,42.48
2018-07-24T11:31:32.759Z,41.20
2018-07-24T11:34:02.112Z,41.01
2018-07-24T11:36:31.523Z,39.80
2018-07-24T11:39:01.099Z,39.35
2018-07-24T11:41:30.528Z,39.15
2018-07-24T11:43:59.910Z,38.95
2018-07-24T11:46:29.252Z,39.60
2018-07-24T11:48:58.992Z,38.68
2018-07-24T11:51:28.455Z,38.31
2018-07-24T11:53:57.851Z,37.15
2018-07-24T11:56:27.312Z,36.99
2018-07-24T11:58:56.647Z,37.96
2018-07-24T12:01:25.971Z,37.89
2018-07-24T12:03:55.382Z,38.00
2018-07-24T12:06:24.762Z,37.72
2018-07-24T12:08:54.136Z,38.51
2018-07-24T12:11:30.174Z,37.98
2018-07-24T12:14:00.549Z,38.40
2018-07-24T12:16:29.910Z,38.84
2018-07-24T12:18:59.302Z,38.46
2018-07-24T12:21:31.448Z,38.55
2018-07-24T12:24:02.106Z,38.32
2018-07-24T12:26:31.415Z,38.06
2018-07-24T12:29:00.737Z,37.54
2018-07-24T12:31:30.151Z,37.35
2018-07-24T12:33:59.519Z,38.07
2018-07-24T12:36:28.894Z,37.74
2018-07-24T12:38:58.258Z,38.53
2018-07-24T12:41:27.573Z,38.64
2018-07-24T12:43:56.926Z,37.61
2018-07-24T12:46:26.226Z,37.38
2018-07-24T12:48:55.619Z,37.89
2018-07-24T12:51:24.941Z,38.36
2018-07-24T12:53:56.665Z,37.78
2018-07-24T12:56:26.301Z,37.73
2018-07-24T12:58:55.599Z,37.57
2018-07-24T13:01:24.919Z,37.93
2018-07-24T13:03:54.338Z,37.43
2018-07-24T13:06:23.837Z,38.45
2018-07-24T13:08:53.195Z,37.66
2018-07-24T13:11:22.503Z,37.52
2018-07-24T13:13:51.889Z,37.39
2018-07-24T13:16:21.286Z,37.05
2018-07-24T13:18:50.604Z,36.64
2018-07-24T13:21:19.931Z,37.25
2018-07-24T13:23:49.332Z,36.41
2018-07-24T13:26:18.644Z,37.32
2018-07-24T13:28:48.029Z,36.14
2018-07-24T13:31:17.490Z,36.60
2018-07-24T13:33:46.892Z,37.58
2018-07-24T13:36:16.249Z,37.52
2018-07-24T13:38:45.608Z,37.52
2018-07-24T13:41:15.023Z,37.50
2018-07-24T13:43:44.404Z,37.25
2018-07-24T13:46:13.821Z,37.39
2018-07-24T13:48:43.218Z,36.98
2018-07-24T13:51:12.582Z,36.31
2018-07-24T13:53:41.963Z,36.88
2018-07-24T13:56:11.306Z,37.22
2018-07-24T13:58:40.691Z,35.24
2018-07-24T14:01:10.046Z,36.94
2018-07-24T14:03:39.330Z,37.65
2018-07-24T14:06:08.809Z,36.71
2018-07-24T14:08:38.139Z,37.27
2018-07-24T14:11:07.473Z,37.37
2018-07-24T14:13:36.867Z,37.59
2018-07-24T14:16:06.227Z,36.81
2018-07-24T14:18:35.550Z,36.88
2018-07-24T14:21:04.957Z,36.34
2018-07-24T14:23:34.296Z,37.44
2018-07-24T14:26:03.615Z,36.22
2018-07-24T14:28:32.968Z,36.53
2018-07-24T14:31:02.327Z,36.55
2018-07-24T14:33:31.696Z,36.89
2018-07-24T14:36:01.077Z,36.95
2018-07-24T14:38:30.376Z,36.21
2018-07-24T14:40:59.765Z,36.34
2018-07-24T14:43:29.050Z,36.65
2018-07-24T14:45:58.546Z,35.78
2018-07-24T14:48:27.952Z,36.68
2018-07-24T14:50:58.381Z,36.04
2018-07-24T14:53:27.699Z,36.14
2018-07-24T14:55:57.007Z,36.30
2018-07-24T14:58:26.339Z,35.73
2018-07-24T15:00:55.688Z,35.34
2018-07-24T15:03:25.116Z,35.80
2018-07-24T15:05:54.437Z,36.30
2018-07-24T15:08:23.829Z,36.25
2018-07-24T15:10:53.165Z,36.59
2018-07-24T15:16:06.454Z,36.25
2018-07-24T15:18:36.109Z,36.61
2018-07-24T15:21:05.447Z,36.68
2018-07-24T15:23:34.752Z,36.25
2018-07-24T15:26:04.353Z,37.26
2018-07-24T15:28:33.763Z,37.53
2018-07-24T15:31:03.068Z,37.41
2018-07-24T15:33:32.437Z,36.58
2018-07-24T15:36:01.722Z,36.79
2018-07-24T15:38:31.041Z,36.33
2018-07-24T15:41:00.334Z,36.48
2018-07-24T15:43:29.653Z,36.68
2018-07-24T15:45:58.998Z,36.00
2018-07-24T15:48:29.317Z,35.94
2018-07-24T15:50:58.668Z,36.34
2018-07-24T15:53:30.068Z,36.77
2018-07-24T15:55:59.514Z,37.16
2018-07-24T15:58:28.978Z,36.65
2018-07-24T16:00:58.349Z,36.99
2018-07-24T16:03:27.842Z,36.51
2018-07-24T16:05:57.240Z,36.31
2018-07-24T16:08:26.630Z,35.79
2018-07-24T16:10:56.186Z,36.10
2018-07-24T16:13:26.013Z,36.86
2018-07-24T16:15:55.575Z,36.66
2018-07-24T16:18:25.889Z,37.15
2018-07-24T16:20:55.240Z,36.44
2018-07-24T16:23:24.562Z,36.19
2018-07-24T16:25:53.944Z,36.49
2018-07-24T16:28:23.267Z,35.49
2018-07-24T16:30:52.643Z,36.03
2018-07-24T16:33:22.046Z,36.40
2018-07-24T16:35:51.460Z,36.70
2018-07-24T16:38:21.917Z,36.49
2018-07-24T16:40:51.254Z,35.78
2018-07-24T16:43:22.611Z,35.39
2018-07-24T16:45:51.946Z,35.21
2018-07-24T16:48:23.417Z,35.32
2018-07-24T16:50:52.812Z,35.23
2018-07-24T16:53:22.166Z,35.34
2018-07-24T16:55:54.532Z,34.79
2018-07-24T16:58:25.006Z,35.08
2018-07-24T17:00:54.491Z,35.57
2018-07-24T17:03:23.790Z,35.39
2018-07-24T17:05:53.181Z,35.63
2018-07-24T17:08:22.523Z,35.70
2018-07-24T17:10:52.008Z,35.71
2018-07-24T17:13:21.363Z,35.00
2018-07-24T17:15:50.644Z,35.36
2018-07-24T17:18:19.969Z,35.40
2018-07-24T17:20:51.309Z,35.32
2018-07-24T17:23:20.761Z,34.98
2018-07-24T17:25:50.317Z,35.26
2018-07-24T17:28:19.605Z,34.82
2018-07-24T17:30:49.020Z,34.86
2018-07-24T17:33:18.341Z,34.24
2018-07-24T17:35:47.679Z,34.43
2018-07-24T17:38:17.078Z,34.67
2018-07-24T17:40:46.413Z,34.03
2018-07-24T17:43:15.736Z,34.09
2018-07-24T17:45:45.194Z,33.40
2018-07-24T17:48:14.526Z,33.45
2018-07-24T17:50:43.830Z,33.69
2018-07-24T17:53:15.262Z,33.90
2018-07-24T17:55:44.576Z,33.54
2018-07-24T17:58:13.854Z,33.45
2018-07-24T18:00:44.212Z,33.74
2018-07-24T18:03:14.587Z,33.59
2018-07-24T18:05:43.860Z,33.42
2018-07-24T18:08:13.186Z,33.07
2018-07-24T18:10:44.517Z,33.35
2018-07-24T18:13:13.924Z,33.56
2018-07-24T18:15:46.114Z,33.31
2018-07-24T18:18:15.465Z,33.42
2018-07-24T18:20:45.146Z,33.09
2018-07-24T18:23:15.558Z,32.80
2018-07-24T18:25:44.900Z,32.63
2018-07-24T18:28:14.301Z,32.41
2018-07-24T18:30:43.638Z,32.38
2018-07-24T18:33:13.930Z,32.09
2018-07-24T18:35:47.101Z,31.81
2018-07-24T18:38:16.484Z,31.56
2018-07-24T18:40:47.850Z,31.71
2018-07-24T18:43:18.210Z,31.09
2018-07-24T18:45:49.585Z,31.21
2018-07-24T18:48:20.910Z,31.38
2018-07-24T18:50:50.333Z,31.03
2018-07-24T18:53:19.690Z,30.87
2018-07-24T18:55:49.035Z,30.65
2018-07-24T18:58:18.380Z,30.35
2018-07-24T19:00:47.692Z,30.53
2018-07-24T19:03:17.132Z,30.24
2018-07-24T19:05:46.566Z,30.15
2018-07-24T19:08:16.213Z,30.02
2018-07-24T19:10:45.983Z,29.77
2018-07-24T19:13:17.037Z,29.64
2018-07-24T19:15:46.663Z,29.54
2018-07-24T19:18:16.540Z,29.56
2018-07-24T19:20:46.712Z,29.00
2018-07-24T19:23:16.249Z,28.82
2018-07-24T19:25:45.661Z,28.96
2018-07-24T19:28:15.039Z,28.71
2018-07-24T19:30:44.385Z,28.92
2018-07-24T19:33:13.773Z,28.74
2018-07-24T19:35:43.113Z,28.71
2018-07-24T19:38:12.638Z,28.73
2018-07-24T19:40:41.973Z,28.37
2018-07-24T19:43:11.342Z,28.42
2018-07-24T19:45:40.621Z,28.21
2018-07-24T19:48:11.163Z,27.95
2018-07-24T19:50:41.537Z,27.60
2018-07-24T19:53:10.862Z,28.20
2018-07-24T19:55:40.178Z,28.40
2018-07-24T19:58:09.517Z,28.04
2018-07-24T20:00:38.916Z,27.78
2018-07-24T20:03:08.234Z,27.65
2018-07-24T20:05:37.557Z,27.96
2018-07-24T20:08:06.929Z,28.12
2018-07-24T20:10:36.219Z,28.16
2018-07-24T20:13:05.570Z,27.82
2018-07-24T20:15:34.852Z,27.88
2018-07-24T20:18:04.134Z,27.69
2018-07-24T20:20:33.525Z,27.26
2018-07-24T20:23:02.897Z,27.49
2018-07-24T20:25:32.172Z,26.98
2018-07-24T20:28:02.464Z,27.40
2018-07-24T20:30:31.754Z,27.39
2018-07-24T20:33:01.170Z,27.26
2018-07-24T20:35:30.487Z,27.52
2018-07-24T20:37:59.737Z,27.24
2018-07-24T20:40:29.045Z,26.78
2018-07-24T20:42:58.441Z,26.92
2018-07-24T20:45:27.777Z,27.01
2018-07-24T20:47:57.080Z,26.66
2018-07-24T20:50:26.337Z,26.84
2018-07-24T20:52:55.675Z,26.61
2018-07-24T20:55:24.991Z,26.33
2018-07-24T20:57:54.399Z,26.65
2018-07-24T21:00:23.731Z,26.54
2018-07-24T21:02:53.001Z,26.43
2018-07-24T21:05:22.293Z,26.30
2018-07-24T21:07:51.650Z,26.35
2018-07-24T21:10:20.921Z,25.99
2018-07-24T21:12:50.725Z,26.34
2018-07-24T21:15:20.225Z,26.27
2018-07-24T21:17:49.506Z,26.15
2018-07-24T21:20:18.824Z,25.79
2018-07-24T21:22:48.089Z,25.68
2018-07-24T21:25:17.346Z,25.68
2018-07-24T21:27:46.694Z,25.47
2018-07-24T21:30:15.965Z,25.59
2018-07-24T21:32:45.329Z,25.31
2018-07-24T21:35:14.590Z,25.71
2018-07-24T21:37:43.896Z,25.37
2018-07-24T21:40:13.978Z,25.33
2018-07-24T21:42:43.289Z,25.40
2018-07-24T21:45:12.549Z,25.77
2018-07-24T21:47:41.845Z,25.49
2018-07-24T21:50:11.109Z,25.00
2018-07-24T21:52:40.470Z,25.20
2018-07-24T21:55:09.794Z,24.79
2018-07-24T21:57:39.064Z,24.82
2018-07-24T22:00:10.592Z,25.13
2018-07-24T22:02:39.898Z,24.84
2018-07-24T22:05:09.368Z,24.53
2018-07-24T22:07:38.721Z,24.83
2018-07-24T22:10:13.334Z,24.93
2018-07-24T22:12:42.721Z,24.62
2018-07-24T22:15:23.984Z,24.62
2018-07-24T22:17:53.634Z,24.71
2018-07-24T22:20:23.181Z,24.59
2018-07-24T22:22:52.725Z,24.68
2018-07-24T22:25:22.041Z,24.42
2018-07-24T22:27:51.336Z,24.54
2018-07-24T22:30:20.618Z,24.41
2018-07-24T22:32:49.888Z,24.76
2018-07-24T22:35:19.198Z,24.74
2018-07-24T22:37:48.572Z,24.61
2018-07-24T22:40:17.884Z,24.75
2018-07-24T22:42:47.252Z,24.43
2018-07-24T22:45:16.573Z,24.50
2018-07-24T22:47:45.888Z,24.37
2018-07-24T22:50:15.227Z,24.33
2018-07-24T22:52:44.463Z,24.41
2018-07-24T22:55:13.730Z,24.33
2018-07-24T22:57:43.177Z,24.38
2018-07-24T23:00:12.457Z,24.55
2018-07-24T23:02:41.917Z,24.30
2018-07-24T23:05:11.314Z,24.57
2018-07-24T23:07:40.607Z,24.44
2018-07-24T23:10:09.934Z,24.35
2018-07-24T23:12:39.277Z,24.34
2018-07-24T23:15:08.629Z,24.13
2018-07-24T23:17:37.939Z,23.96
2018-07-24T23:20:07.254Z,24.14
2018-07-24T23:22:37.518Z,23.76
2018-07-24T23:25:06.834Z,23.58
2018-07-24T23:27:36.125Z,24.29
2018-07-24T23:30:05.501Z,24.12
2018-07-24T23:32:34.858Z,24.20
2018-07-24T23:35:04.208Z,24.09
2018-07-24T23:37:33.560Z,23.97
2018-07-24T23:40:02.912Z,23.85
2018-07-24T23:42:32.180Z,24.11
2018-07-24T23:45:01.550Z,24.10
2018-07-24T23:47:30.852Z,23.83
2018-07-24T23:50:00.307Z,23.79
2018-07-24T23:52:29.614Z,23.65
2018-07-24T23:54:59.003Z,23.51
2018-07-24T23:57:28.437Z,23.74
2018-07-24T23:59:57.737Z,23.56
